sensor_id;sensor_type;location;lat;lon;timestamp;P1;durP1;ratioP1;P2;durP2;ratioP2
2099;SDS011;1055;48.854;9.302;2023-07-08T00:00:11;13.13;;;7.40;;
2099;SDS011;1055;48.854;9.302;2023-07-08T00:02:38;14.90;;;7.30;;
2099;SDS011;1055;48.854;9.302;2023-07-08T00:05:05;10.50;;;7.10;;
2099;SDS011;1055;48.854;9.302;2023-07-08T00:07:31;12.60;;;7.17;;
2099;SDS011;1055;48.854;9.302;2023-07-08T00:09:56;14.23;;;8.13;;
2099;SDS011;1055;48.854;9.302;2023-07-08T00:12:22;11.63;;;7.70;;
2099;SDS011;1055;48.854;9.302;2023-07-08T00:14:47;12.13;;;8.53;;
2099;SDS011;1055;48.854;9.302;2023-07-08T00:17:13;11.00;;;7.40;;
2099;SDS011;1055;48.854;9.302;2023-07-08T00:19:39;12.70;;;8.67;;
2099;SDS011;1055;48.854;9.302;2023-07-08T00:22:23;11.30;;;7.40;;
2099;SDS011;1055;48.854;9.302;2023-07-08T00:24:49;11.70;;;7.53;;
2099;SDS011;1055;48.854;9.302;2023-07-08T00:27:15;13.00;;;8.07;;
2099;SDS011;1055;48.854;9.302;2023-07-08T00:29:41;13.07;;;8.20;;
2099;SDS011;1055;48.854;9.302;2023-07-08T00:32:11;12.30;;;7.23;;
2099;SDS011;1055;48.854;9.302;2023-07-08T00:34:39;13.20;;;7.80;;
2099;SDS011;1055;48.854;9.302;2023-07-08T00:37:05;12.67;;;7.70;;
2099;SDS011;1055;48.854;9.302;2023-07-08T00:39:33;12.20;;;7.83;;
2099;SDS011;1055;48.854;9.302;2023-07-08T00:42:02;13.10;;;8.30;;
2099;SDS011;1055;48.854;9.302;2023-07-08T00:44:37;13.90;;;7.70;;
2099;SDS011;1055;48.854;9.302;2023-07-08T00:47:07;11.57;;;7.37;;
2099;SDS011;1055;48.854;9.302;2023-07-08T00:55:01;13.70;;;7.60;;
2099;SDS011;1055;48.854;9.302;2023-07-08T00:57:32;12.30;;;8.20;;
2099;SDS011;1055;48.854;9.302;2023-07-08T01:00:05;10.55;;;6.90;;
2099;SDS011;1055;48.854;9.302;2023-07-08T01:02:38;11.47;;;7.50;;
2099;SDS011;1055;48.854;9.302;2023-07-08T01:05:14;12.10;;;7.50;;
2099;SDS011;1055;48.854;9.302;2023-07-08T01:07:45;13.70;;;8.43;;
2099;SDS011;1055;48.854;9.302;2023-07-08T01:10:17;12.77;;;8.00;;
2099;SDS011;1055;48.854;9.302;2023-07-08T01:12:48;11.47;;;7.60;;
2099;SDS011;1055;48.854;9.302;2023-07-08T01:15:17;11.90;;;7.20;;
2099;SDS011;1055;48.854;9.302;2023-07-08T01:17:44;14.00;;;7.50;;
2099;SDS011;1055;48.854;9.302;2023-07-08T01:20:11;13.30;;;7.90;;
2099;SDS011;1055;48.854;9.302;2023-07-08T01:22:38;12.90;;;8.13;;
2099;SDS011;1055;48.854;9.302;2023-07-08T01:25:06;12.80;;;8.20;;
2099;SDS011;1055;48.854;9.302;2023-07-08T01:27:34;14.50;;;7.70;;
2099;SDS011;1055;48.854;9.302;2023-07-08T01:30:04;13.20;;;8.30;;
2099;SDS011;1055;48.854;9.302;2023-07-08T01:32:32;11.27;;;7.00;;
2099;SDS011;1055;48.854;9.302;2023-07-08T01:35:01;13.27;;;8.20;;
2099;SDS011;1055;48.854;9.302;2023-07-08T01:38:01;14.90;;;8.33;;
2099;SDS011;1055;48.854;9.302;2023-07-08T01:40:32;11.50;;;6.90;;
2099;SDS011;1055;48.854;9.302;2023-07-08T01:43:00;13.60;;;7.40;;
2099;SDS011;1055;48.854;9.302;2023-07-08T01:45:28;10.60;;;6.73;;
2099;SDS011;1055;48.854;9.302;2023-07-08T01:47:58;10.30;;;7.13;;
2099;SDS011;1055;48.854;9.302;2023-07-08T01:50:28;15.87;;;8.70;;
2099;SDS011;1055;48.854;9.302;2023-07-08T01:52:56;12.10;;;7.57;;
2099;SDS011;1055;48.854;9.302;2023-07-08T01:55:25;11.13;;;7.30;;
2099;SDS011;1055;48.854;9.302;2023-07-08T01:57:54;14.10;;;7.60;;
2099;SDS011;1055;48.854;9.302;2023-07-08T02:00:20;12.97;;;7.57;;
2099;SDS011;1055;48.854;9.302;2023-07-08T02:02:46;10.73;;;6.93;;
2099;SDS011;1055;48.854;9.302;2023-07-08T02:05:13;11.60;;;6.97;;
2099;SDS011;1055;48.854;9.302;2023-07-08T02:07:39;10.93;;;6.70;;
2099;SDS011;1055;48.854;9.302;2023-07-08T02:10:05;12.43;;;7.50;;
2099;SDS011;1055;48.854;9.302;2023-07-08T02:12:31;10.97;;;6.97;;
2099;SDS011;1055;48.854;9.302;2023-07-08T02:14:59;13.37;;;7.10;;
2099;SDS011;1055;48.854;9.302;2023-07-08T02:17:25;12.37;;;8.33;;
2099;SDS011;1055;48.854;9.302;2023-07-08T02:19:53;11.07;;;6.90;;
2099;SDS011;1055;48.854;9.302;2023-07-08T02:22:20;11.50;;;7.27;;
2099;SDS011;1055;48.854;9.302;2023-07-08T02:24:45;11.53;;;7.30;;
2099;SDS011;1055;48.854;9.302;2023-07-08T02:27:11;12.40;;;7.90;;
2099;SDS011;1055;48.854;9.302;2023-07-08T02:29:37;14.67;;;7.13;;
2099;SDS011;1055;48.854;9.302;2023-07-08T02:32:03;11.40;;;7.50;;
2099;SDS011;1055;48.854;9.302;2023-07-08T02:34:29;11.07;;;6.30;;
2099;SDS011;1055;48.854;9.302;2023-07-08T02:36:55;10.73;;;7.40;;
2099;SDS011;1055;48.854;9.302;2023-07-08T02:39:21;11.43;;;7.30;;
2099;SDS011;1055;48.854;9.302;2023-07-08T02:41:47;14.27;;;7.40;;
2099;SDS011;1055;48.854;9.302;2023-07-08T02:44:13;14.27;;;7.57;;
2099;SDS011;1055;48.854;9.302;2023-07-08T02:46:39;12.60;;;7.27;;
2099;SDS011;1055;48.854;9.302;2023-07-08T02:49:04;13.10;;;7.93;;
2099;SDS011;1055;48.854;9.302;2023-07-08T02:51:30;13.40;;;8.07;;
2099;SDS011;1055;48.854;9.302;2023-07-08T02:53:56;12.63;;;8.13;;
2099;SDS011;1055;48.854;9.302;2023-07-08T02:56:22;12.70;;;7.80;;
2099;SDS011;1055;48.854;9.302;2023-07-08T02:58:48;11.50;;;7.20;;
2099;SDS011;1055;48.854;9.302;2023-07-08T03:01:14;10.70;;;6.50;;
2099;SDS011;1055;48.854;9.302;2023-07-08T03:03:46;14.70;;;8.30;;
2099;SDS011;1055;48.854;9.302;2023-07-08T03:06:12;12.57;;;7.80;;
2099;SDS011;1055;48.854;9.302;2023-07-08T03:08:39;11.97;;;7.67;;
2099;SDS011;1055;48.854;9.302;2023-07-08T03:11:05;13.20;;;8.07;;
2099;SDS011;1055;48.854;9.302;2023-07-08T03:13:33;13.63;;;8.27;;
2099;SDS011;1055;48.854;9.302;2023-07-08T03:15:59;13.20;;;8.50;;
2099;SDS011;1055;48.854;9.302;2023-07-08T03:18:26;15.10;;;8.07;;
2099;SDS011;1055;48.854;9.302;2023-07-08T03:20:53;14.23;;;8.30;;
2099;SDS011;1055;48.854;9.302;2023-07-08T03:23:20;12.73;;;8.27;;
2099;SDS011;1055;48.854;9.302;2023-07-08T03:25:47;12.53;;;7.70;;
2099;SDS011;1055;48.854;9.302;2023-07-08T03:28:13;12.23;;;7.83;;
2099;SDS011;1055;48.854;9.302;2023-07-08T03:30:43;12.53;;;8.20;;
2099;SDS011;1055;48.854;9.302;2023-07-08T03:33:10;14.40;;;8.67;;
2099;SDS011;1055;48.854;9.302;2023-07-08T03:35:37;12.87;;;7.73;;
2099;SDS011;1055;48.854;9.302;2023-07-08T03:38:03;14.90;;;8.33;;
2099;SDS011;1055;48.854;9.302;2023-07-08T03:40:29;12.80;;;8.87;;
2099;SDS011;1055;48.854;9.302;2023-07-08T03:42:55;16.33;;;7.67;;
2099;SDS011;1055;48.854;9.302;2023-07-08T03:45:21;13.60;;;8.10;;
2099;SDS011;1055;48.854;9.302;2023-07-08T03:47:47;13.90;;;7.40;;
2099;SDS011;1055;48.854;9.302;2023-07-08T03:50:17;12.10;;;7.93;;
2099;SDS011;1055;48.854;9.302;2023-07-08T03:52:45;14.50;;;8.40;;
2099;SDS011;1055;48.854;9.302;2023-07-08T03:55:12;14.10;;;8.53;;
2099;SDS011;1055;48.854;9.302;2023-07-08T03:57:37;11.83;;;7.40;;
2099;SDS011;1055;48.854;9.302;2023-07-08T04:00:03;14.50;;;7.80;;
2099;SDS011;1055;48.854;9.302;2023-07-08T04:02:30;13.30;;;7.40;;
2099;SDS011;1055;48.854;9.302;2023-07-08T04:04:55;13.60;;;7.70;;
2099;SDS011;1055;48.854;9.302;2023-07-08T04:07:21;13.00;;;7.33;;
2099;SDS011;1055;48.854;9.302;2023-07-08T04:09:46;15.57;;;8.30;;
2099;SDS011;1055;48.854;9.302;2023-07-08T04:12:15;12.20;;;8.00;;
2099;SDS011;1055;48.854;9.302;2023-07-08T04:14:41;14.87;;;7.63;;
2099;SDS011;1055;48.854;9.302;2023-07-08T04:17:07;12.63;;;7.80;;
2099;SDS011;1055;48.854;9.302;2023-07-08T04:19:34;12.90;;;8.73;;
2099;SDS011;1055;48.854;9.302;2023-07-08T04:22:00;13.80;;;7.67;;
2099;SDS011;1055;48.854;9.302;2023-07-08T04:24:27;13.60;;;7.40;;
2099;SDS011;1055;48.854;9.302;2023-07-08T04:26:53;12.07;;;7.80;;
2099;SDS011;1055;48.854;9.302;2023-07-08T04:29:19;12.00;;;7.23;;
2099;SDS011;1055;48.854;9.302;2023-07-08T04:31:46;12.53;;;7.60;;
2099;SDS011;1055;48.854;9.302;2023-07-08T04:34:12;11.57;;;7.70;;
2099;SDS011;1055;48.854;9.302;2023-07-08T04:36:38;13.27;;;8.23;;
2099;SDS011;1055;48.854;9.302;2023-07-08T04:39:05;12.33;;;7.80;;
2099;SDS011;1055;48.854;9.302;2023-07-08T04:41:32;12.57;;;7.63;;
2099;SDS011;1055;48.854;9.302;2023-07-08T04:43:58;12.50;;;7.37;;
2099;SDS011;1055;48.854;9.302;2023-07-08T04:46:37;13.87;;;7.70;;
2099;SDS011;1055;48.854;9.302;2023-07-08T04:49:11;11.10;;;7.00;;
2099;SDS011;1055;48.854;9.302;2023-07-08T04:51:38;12.30;;;7.90;;
2099;SDS011;1055;48.854;9.302;2023-07-08T04:54:05;12.53;;;7.30;;
2099;SDS011;1055;48.854;9.302;2023-07-08T04:56:38;13.60;;;7.53;;
2099;SDS011;1055;48.854;9.302;2023-07-08T04:59:12;11.77;;;7.30;;
2099;SDS011;1055;48.854;9.302;2023-07-08T05:01:39;11.33;;;6.70;;
2099;SDS011;1055;48.854;9.302;2023-07-08T05:04:05;11.73;;;8.03;;
2099;SDS011;1055;48.854;9.302;2023-07-08T05:06:32;11.50;;;7.30;;
2099;SDS011;1055;48.854;9.302;2023-07-08T05:08:59;10.60;;;6.87;;
2099;SDS011;1055;48.854;9.302;2023-07-08T05:11:25;10.93;;;6.80;;
2099;SDS011;1055;48.854;9.302;2023-07-08T05:13:52;14.30;;;8.17;;
2099;SDS011;1055;48.854;9.302;2023-07-08T05:16:17;13.83;;;7.90;;
2099;SDS011;1055;48.854;9.302;2023-07-08T05:18:43;10.50;;;6.60;;
2099;SDS011;1055;48.854;9.302;2023-07-08T05:21:09;11.30;;;7.60;;
2099;SDS011;1055;48.854;9.302;2023-07-08T05:23:36;16.00;;;7.77;;
2099;SDS011;1055;48.854;9.302;2023-07-08T05:26:02;12.30;;;6.90;;
2099;SDS011;1055;48.854;9.302;2023-07-08T05:28:29;11.10;;;7.23;;
2099;SDS011;1055;48.854;9.302;2023-07-08T05:30:55;14.43;;;7.63;;
2099;SDS011;1055;48.854;9.302;2023-07-08T05:33:22;11.47;;;7.13;;
2099;SDS011;1055;48.854;9.302;2023-07-08T05:35:48;11.27;;;6.83;;
2099;SDS011;1055;48.854;9.302;2023-07-08T05:38:14;11.20;;;6.80;;
2099;SDS011;1055;48.854;9.302;2023-07-08T05:40:39;10.87;;;6.63;;
2099;SDS011;1055;48.854;9.302;2023-07-08T05:43:05;13.10;;;8.50;;
2099;SDS011;1055;48.854;9.302;2023-07-08T05:45:31;10.63;;;6.43;;
2099;SDS011;1055;48.854;9.302;2023-07-08T05:47:57;12.63;;;7.67;;
2099;SDS011;1055;48.854;9.302;2023-07-08T05:50:22;12.43;;;7.07;;
2099;SDS011;1055;48.854;9.302;2023-07-08T05:52:48;12.67;;;7.23;;
2099;SDS011;1055;48.854;9.302;2023-07-08T05:55:14;12.60;;;8.03;;
2099;SDS011;1055;48.854;9.302;2023-07-08T05:57:39;10.63;;;6.37;;
2099;SDS011;1055;48.854;9.302;2023-07-08T06:00:05;10.70;;;7.23;;
2099;SDS011;1055;48.854;9.302;2023-07-08T06:02:31;11.90;;;7.20;;
2099;SDS011;1055;48.854;9.302;2023-07-08T06:04:57;11.40;;;7.20;;
2099;SDS011;1055;48.854;9.302;2023-07-08T06:07:22;12.80;;;7.67;;
2099;SDS011;1055;48.854;9.302;2023-07-08T06:09:48;12.23;;;6.93;;
2099;SDS011;1055;48.854;9.302;2023-07-08T06:12:14;10.87;;;7.43;;
2099;SDS011;1055;48.854;9.302;2023-07-08T06:14:39;11.80;;;7.90;;
2099;SDS011;1055;48.854;9.302;2023-07-08T06:17:05;11.63;;;7.70;;
2099;SDS011;1055;48.854;9.302;2023-07-08T06:19:32;11.53;;;8.20;;
2099;SDS011;1055;48.854;9.302;2023-07-08T06:21:58;13.47;;;8.20;;
2099;SDS011;1055;48.854;9.302;2023-07-08T06:24:23;12.50;;;7.67;;
2099;SDS011;1055;48.854;9.302;2023-07-08T06:26:49;13.90;;;9.50;;
2099;SDS011;1055;48.854;9.302;2023-07-08T06:29:15;13.33;;;8.30;;
2099;SDS011;1055;48.854;9.302;2023-07-08T06:31:41;11.97;;;8.13;;
2099;SDS011;1055;48.854;9.302;2023-07-08T06:34:07;12.10;;;7.90;;
2099;SDS011;1055;48.854;9.302;2023-07-08T06:36:33;11.00;;;6.97;;
2099;SDS011;1055;48.854;9.302;2023-07-08T06:38:58;13.47;;;8.93;;
2099;SDS011;1055;48.854;9.302;2023-07-08T06:41:24;12.03;;;7.40;;
2099;SDS011;1055;48.854;9.302;2023-07-08T06:43:50;13.17;;;7.67;;
2099;SDS011;1055;48.854;9.302;2023-07-08T06:46:15;11.93;;;7.67;;
2099;SDS011;1055;48.854;9.302;2023-07-08T06:48:41;13.17;;;7.67;;
2099;SDS011;1055;48.854;9.302;2023-07-08T06:51:07;13.57;;;7.70;;
2099;SDS011;1055;48.854;9.302;2023-07-08T06:53:33;12.37;;;6.73;;
2099;SDS011;1055;48.854;9.302;2023-07-08T06:55:59;13.17;;;7.90;;
2099;SDS011;1055;48.854;9.302;2023-07-08T06:58:25;15.13;;;8.30;;
2099;SDS011;1055;48.854;9.302;2023-07-08T07:00:52;10.80;;;6.90;;
2099;SDS011;1055;48.854;9.302;2023-07-08T07:03:23;12.47;;;6.47;;
2099;SDS011;1055;48.854;9.302;2023-07-08T07:05:50;12.07;;;7.70;;
2099;SDS011;1055;48.854;9.302;2023-07-08T07:08:20;13.33;;;7.63;;
2099;SDS011;1055;48.854;9.302;2023-07-08T07:10:48;9.40;;;6.10;;
2099;SDS011;1055;48.854;9.302;2023-07-08T07:13:15;13.53;;;7.40;;
2099;SDS011;1055;48.854;9.302;2023-07-08T07:15:41;11.73;;;7.33;;
2099;SDS011;1055;48.854;9.302;2023-07-08T07:18:06;12.70;;;7.40;;
2099;SDS011;1055;48.854;9.302;2023-07-08T07:20:33;12.87;;;7.40;;
2099;SDS011;1055;48.854;9.302;2023-07-08T07:23:00;10.43;;;7.20;;
2099;SDS011;1055;48.854;9.302;2023-07-08T07:25:26;12.73;;;7.90;;
2099;SDS011;1055;48.854;9.302;2023-07-08T07:27:52;12.10;;;7.27;;
2099;SDS011;1055;48.854;9.302;2023-07-08T07:30:17;13.00;;;7.63;;
2099;SDS011;1055;48.854;9.302;2023-07-08T07:32:43;10.63;;;6.33;;
2099;SDS011;1055;48.854;9.302;2023-07-08T07:35:10;13.03;;;7.20;;
2099;SDS011;1055;48.854;9.302;2023-07-08T07:37:38;11.87;;;7.63;;
2099;SDS011;1055;48.854;9.302;2023-07-08T07:40:06;12.60;;;7.40;;
2099;SDS011;1055;48.854;9.302;2023-07-08T07:42:37;16.40;;;7.80;;
2099;SDS011;1055;48.854;9.302;2023-07-08T07:45:04;12.37;;;7.10;;
2099;SDS011;1055;48.854;9.302;2023-07-08T07:47:30;11.53;;;7.30;;
2099;SDS011;1055;48.854;9.302;2023-07-08T07:49:56;10.90;;;6.80;;
2099;SDS011;1055;48.854;9.302;2023-07-08T07:52:22;11.10;;;6.60;;
2099;SDS011;1055;48.854;9.302;2023-07-08T07:54:49;10.97;;;6.00;;
2099;SDS011;1055;48.854;9.302;2023-07-08T07:57:16;12.30;;;7.23;;
2099;SDS011;1055;48.854;9.302;2023-07-08T07:59:42;9.73;;;6.33;;
2099;SDS011;1055;48.854;9.302;2023-07-08T08:02:08;11.90;;;6.53;;
2099;SDS011;1055;48.854;9.302;2023-07-08T08:04:33;12.03;;;6.20;;
2099;SDS011;1055;48.854;9.302;2023-07-08T08:06:59;11.07;;;6.77;;
2099;SDS011;1055;48.854;9.302;2023-07-08T08:09:25;9.00;;;6.00;;
2099;SDS011;1055;48.854;9.302;2023-07-08T08:11:51;11.33;;;6.80;;
2099;SDS011;1055;48.854;9.302;2023-07-08T08:14:17;10.50;;;6.77;;
2099;SDS011;1055;48.854;9.302;2023-07-08T08:16:43;10.50;;;7.00;;
2099;SDS011;1055;48.854;9.302;2023-07-08T08:19:09;11.23;;;7.53;;
2099;SDS011;1055;48.854;9.302;2023-07-08T08:21:35;14.40;;;7.23;;
2099;SDS011;1055;48.854;9.302;2023-07-08T08:24:01;11.87;;;6.40;;
2099;SDS011;1055;48.854;9.302;2023-07-08T08:26:27;13.23;;;7.17;;
2099;SDS011;1055;48.854;9.302;2023-07-08T08:28:53;12.37;;;6.57;;
2099;SDS011;1055;48.854;9.302;2023-07-08T08:31:19;12.10;;;6.67;;
2099;SDS011;1055;48.854;9.302;2023-07-08T08:33:45;9.47;;;6.07;;
2099;SDS011;1055;48.854;9.302;2023-07-08T08:36:11;12.30;;;7.10;;
2099;SDS011;1055;48.854;9.302;2023-07-08T08:38:37;12.30;;;6.70;;
2099;SDS011;1055;48.854;9.302;2023-07-08T08:41:03;13.80;;;7.40;;
2099;SDS011;1055;48.854;9.302;2023-07-08T08:43:35;11.30;;;6.20;;
2099;SDS011;1055;48.854;9.302;2023-07-08T08:46:52;13.30;;;6.83;;
2099;SDS011;1055;48.854;9.302;2023-07-08T08:49:02;10.93;;;6.40;;
2099;SDS011;1055;48.854;9.302;2023-07-08T08:51:45;9.43;;;5.93;;
2099;SDS011;1055;48.854;9.302;2023-07-08T08:54:12;12.93;;;6.67;;
2099;SDS011;1055;48.854;9.302;2023-07-08T09:05:08;10.00;;;5.60;;
2099;SDS011;1055;48.854;9.302;2023-07-08T09:07:38;9.57;;;6.10;;
2099;SDS011;1055;48.854;9.302;2023-07-08T09:10:29;11.90;;;6.30;;
2099;SDS011;1055;48.854;9.302;2023-07-08T09:13:21;11.07;;;6.33;;
2099;SDS011;1055;48.854;9.302;2023-07-08T09:16:05;11.10;;;6.50;;
2099;SDS011;1055;48.854;9.302;2023-07-08T09:18:42;13.43;;;6.07;;
2099;SDS011;1055;48.854;9.302;2023-07-08T09:21:21;9.13;;;5.60;;
2099;SDS011;1055;48.854;9.302;2023-07-08T09:23:54;9.60;;;6.00;;
2099;SDS011;1055;48.854;9.302;2023-07-08T09:26:25;9.57;;;5.47;;
2099;SDS011;1055;48.854;9.302;2023-07-08T09:28:55;12.87;;;5.40;;
2099;SDS011;1055;48.854;9.302;2023-07-08T09:31:22;9.40;;;5.30;;
2099;SDS011;1055;48.854;9.302;2023-07-08T09:33:54;9.50;;;5.57;;
2099;SDS011;1055;48.854;9.302;2023-07-08T09:36:38;10.43;;;6.23;;
2099;SDS011;1055;48.854;9.302;2023-07-08T09:39:09;12.70;;;5.37;;
2099;SDS011;1055;48.854;9.302;2023-07-08T09:41:44;10.90;;;5.60;;
2099;SDS011;1055;48.854;9.302;2023-07-08T09:46:41;9.50;;;5.73;;
2099;SDS011;1055;48.854;9.302;2023-07-08T09:49:17;12.00;;;6.00;;
2099;SDS011;1055;48.854;9.302;2023-07-08T09:51:49;10.03;;;6.40;;
2099;SDS011;1055;48.854;9.302;2023-07-08T09:54:16;9.20;;;5.77;;
2099;SDS011;1055;48.854;9.302;2023-07-08T09:56:50;11.97;;;6.00;;
2099;SDS011;1055;48.854;9.302;2023-07-08T09:59:47;9.90;;;4.77;;
2099;SDS011;1055;48.854;9.302;2023-07-08T10:02:36;10.00;;;4.47;;
2099;SDS011;1055;48.854;9.302;2023-07-08T10:05:19;7.43;;;3.93;;
2099;SDS011;1055;48.854;9.302;2023-07-08T10:07:48;8.53;;;3.80;;
2099;SDS011;1055;48.854;9.302;2023-07-08T10:10:19;6.10;;;3.17;;
2099;SDS011;1055;48.854;9.302;2023-07-08T10:12:56;6.97;;;3.20;;
2099;SDS011;1055;48.854;9.302;2023-07-08T10:15:52;7.87;;;3.93;;
2099;SDS011;1055;48.854;9.302;2023-07-08T10:18:27;10.17;;;3.90;;
2099;SDS011;1055;48.854;9.302;2023-07-08T10:26:13;9.20;;;3.90;;
2099;SDS011;1055;48.854;9.302;2023-07-08T10:29:14;7.90;;;3.87;;
2099;SDS011;1055;48.854;9.302;2023-07-08T10:31:58;7.03;;;3.97;;
2099;SDS011;1055;48.854;9.302;2023-07-08T10:43:12;7.90;;;4.70;;
2099;SDS011;1055;48.854;9.302;2023-07-08T10:46:09;8.50;;;5.03;;
2099;SDS011;1055;48.854;9.302;2023-07-08T11:03:26;8.30;;;4.60;;
2099;SDS011;1055;48.854;9.302;2023-07-08T11:08:38;7.63;;;4.53;;
2099;SDS011;1055;48.854;9.302;2023-07-08T11:13:53;9.20;;;4.00;;
2099;SDS011;1055;48.854;9.302;2023-07-08T11:19:06;6.93;;;3.80;;
2099;SDS011;1055;48.854;9.302;2023-07-08T11:21:38;7.20;;;4.03;;
2099;SDS011;1055;48.854;9.302;2023-07-08T11:32:13;9.03;;;4.10;;
2099;SDS011;1055;48.854;9.302;2023-07-08T11:34:41;9.30;;;4.03;;
2099;SDS011;1055;48.854;9.302;2023-07-08T11:37:09;7.00;;;3.77;;
2099;SDS011;1055;48.854;9.302;2023-07-08T11:39:44;9.03;;;3.80;;
2099;SDS011;1055;48.854;9.302;2023-07-08T11:45:07;7.00;;;3.53;;
2099;SDS011;1055;48.854;9.302;2023-07-08T11:47:47;7.33;;;3.73;;
2099;SDS011;1055;48.854;9.302;2023-07-08T11:50:25;7.20;;;3.87;;
2099;SDS011;1055;48.854;9.302;2023-07-08T11:53:12;6.40;;;3.20;;
2099;SDS011;1055;48.854;9.302;2023-07-08T11:55:56;6.57;;;3.00;;
2099;SDS011;1055;48.854;9.302;2023-07-08T11:58:49;6.40;;;3.03;;
2099;SDS011;1055;48.854;9.302;2023-07-08T12:04:32;8.30;;;3.70;;
2099;SDS011;1055;48.854;9.302;2023-07-08T12:07:19;8.27;;;3.47;;
2099;SDS011;1055;48.854;9.302;2023-07-08T12:09:57;8.20;;;3.80;;
2099;SDS011;1055;48.854;9.302;2023-07-08T12:12:34;7.20;;;3.30;;
2099;SDS011;1055;48.854;9.302;2023-07-08T12:15:44;6.90;;;3.30;;
2099;SDS011;1055;48.854;9.302;2023-07-08T12:17:54;7.67;;;3.60;;
2099;SDS011;1055;48.854;9.302;2023-07-08T12:20:25;6.73;;;3.03;;
2099;SDS011;1055;48.854;9.302;2023-07-08T12:22:56;7.27;;;3.53;;
2099;SDS011;1055;48.854;9.302;2023-07-08T12:25:26;7.30;;;3.43;;
2099;SDS011;1055;48.854;9.302;2023-07-08T12:27:57;8.60;;;2.97;;
2099;SDS011;1055;48.854;9.302;2023-07-08T12:30:23;8.10;;;3.77;;
2099;SDS011;1055;48.854;9.302;2023-07-08T12:32:49;7.90;;;3.70;;
2099;SDS011;1055;48.854;9.302;2023-07-08T12:35:23;6.43;;;2.90;;
2099;SDS011;1055;48.854;9.302;2023-07-08T12:40:52;7.90;;;3.27;;
2099;SDS011;1055;48.854;9.302;2023-07-08T12:43:18;8.20;;;2.90;;
2099;SDS011;1055;48.854;9.302;2023-07-08T12:45:44;7.70;;;3.20;;
2099;SDS011;1055;48.854;9.302;2023-07-08T12:48:10;6.70;;;3.23;;
2099;SDS011;1055;48.854;9.302;2023-07-08T12:50:36;7.00;;;3.47;;
2099;SDS011;1055;48.854;9.302;2023-07-08T12:53:03;9.60;;;3.30;;
2099;SDS011;1055;48.854;9.302;2023-07-08T12:55:35;7.57;;;3.47;;
2099;SDS011;1055;48.854;9.302;2023-07-08T12:58:09;7.20;;;3.20;;
2099;SDS011;1055;48.854;9.302;2023-07-08T13:00:40;7.33;;;3.20;;
2099;SDS011;1055;48.854;9.302;2023-07-08T13:03:14;8.03;;;3.03;;
2099;SDS011;1055;48.854;9.302;2023-07-08T13:05:42;6.97;;;3.20;;
2099;SDS011;1055;48.854;9.302;2023-07-08T13:08:12;7.67;;;3.10;;
2099;SDS011;1055;48.854;9.302;2023-07-08T13:10:39;6.17;;;2.80;;
2099;SDS011;1055;48.854;9.302;2023-07-08T13:13:07;6.90;;;3.23;;
2099;SDS011;1055;48.854;9.302;2023-07-08T13:15:38;8.50;;;3.03;;
2099;SDS011;1055;48.854;9.302;2023-07-08T13:18:13;5.93;;;2.90;;
2099;SDS011;1055;48.854;9.302;2023-07-08T13:20:45;6.43;;;3.13;;
2099;SDS011;1055;48.854;9.302;2023-07-08T13:23:15;6.27;;;3.00;;
2099;SDS011;1055;48.854;9.302;2023-07-08T13:25:41;7.43;;;3.20;;
2099;SDS011;1055;48.854;9.302;2023-07-08T13:30:59;6.60;;;3.00;;
2099;SDS011;1055;48.854;9.302;2023-07-08T13:33:30;6.90;;;3.30;;
2099;SDS011;1055;48.854;9.302;2023-07-08T13:35:57;7.20;;;3.40;;
2099;SDS011;1055;48.854;9.302;2023-07-08T13:38:25;7.63;;;2.90;;
2099;SDS011;1055;48.854;9.302;2023-07-08T13:40:59;6.20;;;2.97;;
2099;SDS011;1055;48.854;9.302;2023-07-08T13:43:30;7.00;;;3.10;;
2099;SDS011;1055;48.854;9.302;2023-07-08T13:45:58;6.10;;;3.00;;
2099;SDS011;1055;48.854;9.302;2023-07-08T13:48:58;7.27;;;2.73;;
2099;SDS011;1055;48.854;9.302;2023-07-08T13:51:18;7.33;;;3.10;;
2099;SDS011;1055;48.854;9.302;2023-07-08T13:53:52;6.67;;;3.03;;
2099;SDS011;1055;48.854;9.302;2023-07-08T13:56:31;7.77;;;3.50;;
2099;SDS011;1055;48.854;9.302;2023-07-08T13:59:03;10.90;;;3.57;;
2099;SDS011;1055;48.854;9.302;2023-07-08T14:01:34;7.20;;;3.10;;
2099;SDS011;1055;48.854;9.302;2023-07-08T14:04:02;6.80;;;3.10;;
2099;SDS011;1055;48.854;9.302;2023-07-08T14:06:33;7.80;;;3.50;;
2099;SDS011;1055;48.854;9.302;2023-07-08T14:09:11;8.07;;;2.70;;
2099;SDS011;1055;48.854;9.302;2023-07-08T14:11:49;6.67;;;2.93;;
2099;SDS011;1055;48.854;9.302;2023-07-08T14:14:18;7.27;;;3.60;;
2099;SDS011;1055;48.854;9.302;2023-07-08T14:16:49;7.50;;;3.43;;
2099;SDS011;1055;48.854;9.302;2023-07-08T14:19:24;7.93;;;3.07;;
2099;SDS011;1055;48.854;9.302;2023-07-08T14:21:56;7.40;;;3.23;;
2099;SDS011;1055;48.854;9.302;2023-07-08T14:24:24;8.40;;;3.43;;
2099;SDS011;1055;48.854;9.302;2023-07-08T14:26:51;9.70;;;3.53;;
2099;SDS011;1055;48.854;9.302;2023-07-08T14:29:18;7.57;;;3.50;;
2099;SDS011;1055;48.854;9.302;2023-07-08T14:31:43;7.70;;;3.73;;
2099;SDS011;1055;48.854;9.302;2023-07-08T14:34:11;7.87;;;3.00;;
2099;SDS011;1055;48.854;9.302;2023-07-08T14:36:40;6.90;;;3.33;;
2099;SDS011;1055;48.854;9.302;2023-07-08T14:39:11;6.90;;;2.93;;
2099;SDS011;1055;48.854;9.302;2023-07-08T14:41:38;7.83;;;4.00;;
2099;SDS011;1055;48.854;9.302;2023-07-08T14:44:38;9.00;;;3.90;;
2099;SDS011;1055;48.854;9.302;2023-07-08T14:46:58;6.77;;;3.47;;
2099;SDS011;1055;48.854;9.302;2023-07-08T14:49:24;6.50;;;3.13;;
2099;SDS011;1055;48.854;9.302;2023-07-08T14:51:53;7.33;;;3.57;;
2099;SDS011;1055;48.854;9.302;2023-07-08T14:54:19;7.13;;;3.30;;
2099;SDS011;1055;48.854;9.302;2023-07-08T14:56:46;6.90;;;3.57;;
2099;SDS011;1055;48.854;9.302;2023-07-08T14:59:20;7.30;;;3.53;;
2099;SDS011;1055;48.854;9.302;2023-07-08T15:01:47;8.40;;;3.23;;
2099;SDS011;1055;48.854;9.302;2023-07-08T15:04:14;9.27;;;3.83;;
2099;SDS011;1055;48.854;9.302;2023-07-08T15:06:41;7.07;;;3.10;;
2099;SDS011;1055;48.854;9.302;2023-07-08T15:09:07;6.47;;;2.93;;
2099;SDS011;1055;48.854;9.302;2023-07-08T15:11:35;8.07;;;3.40;;
2099;SDS011;1055;48.854;9.302;2023-07-08T15:14:16;8.43;;;3.63;;
2099;SDS011;1055;48.854;9.302;2023-07-08T15:16:47;8.63;;;3.27;;
2099;SDS011;1055;48.854;9.302;2023-07-08T15:19:15;8.13;;;3.10;;
2099;SDS011;1055;48.854;9.302;2023-07-08T15:21:41;8.20;;;3.50;;
2099;SDS011;1055;48.854;9.302;2023-07-08T15:24:07;6.57;;;3.20;;
2099;SDS011;1055;48.854;9.302;2023-07-08T15:26:36;8.00;;;3.40;;
2099;SDS011;1055;48.854;9.302;2023-07-08T15:29:06;7.77;;;3.50;;
2099;SDS011;1055;48.854;9.302;2023-07-08T15:31:38;9.13;;;3.87;;
2099;SDS011;1055;48.854;9.302;2023-07-08T15:34:08;8.43;;;3.97;;
2099;SDS011;1055;48.854;9.302;2023-07-08T15:36:41;7.17;;;3.40;;
2099;SDS011;1055;48.854;9.302;2023-07-08T15:39:06;12.77;;;3.93;;
2099;SDS011;1055;48.854;9.302;2023-07-08T15:41:33;7.57;;;3.90;;
2099;SDS011;1055;48.854;9.302;2023-07-08T15:43:59;8.00;;;3.43;;
2099;SDS011;1055;48.854;9.302;2023-07-08T15:46:27;8.07;;;3.63;;
2099;SDS011;1055;48.854;9.302;2023-07-08T15:48:58;8.30;;;4.37;;
2099;SDS011;1055;48.854;9.302;2023-07-08T15:51:24;8.20;;;3.50;;
2099;SDS011;1055;48.854;9.302;2023-07-08T15:53:50;6.10;;;3.13;;
2099;SDS011;1055;48.854;9.302;2023-07-08T15:56:17;8.10;;;3.83;;
2099;SDS011;1055;48.854;9.302;2023-07-08T15:58:44;6.80;;;3.40;;
2099;SDS011;1055;48.854;9.302;2023-07-08T16:01:18;7.37;;;3.23;;
2099;SDS011;1055;48.854;9.302;2023-07-08T16:03:46;11.70;;;3.90;;
2099;SDS011;1055;48.854;9.302;2023-07-08T16:06:13;7.17;;;3.37;;
2099;SDS011;1055;48.854;9.302;2023-07-08T16:08:39;9.63;;;3.90;;
2099;SDS011;1055;48.854;9.302;2023-07-08T16:11:05;8.50;;;3.97;;
2099;SDS011;1055;48.854;9.302;2023-07-08T16:13:37;6.47;;;3.50;;
2099;SDS011;1055;48.854;9.302;2023-07-08T16:16:04;6.50;;;3.53;;
2099;SDS011;1055;48.854;9.302;2023-07-08T16:18:31;8.67;;;3.90;;
2099;SDS011;1055;48.854;9.302;2023-07-08T16:20:57;7.97;;;4.00;;
2099;SDS011;1055;48.854;9.302;2023-07-08T16:23:23;8.13;;;3.13;;
2099;SDS011;1055;48.854;9.302;2023-07-08T16:25:50;7.67;;;3.50;;
2099;SDS011;1055;48.854;9.302;2023-07-08T16:28:19;7.60;;;3.50;;
2099;SDS011;1055;48.854;9.302;2023-07-08T16:30:59;9.20;;;3.80;;
2099;SDS011;1055;48.854;9.302;2023-07-08T16:33:25;7.53;;;3.47;;